createdAt,value
2023-05-08T00:01:53.192Z,100631.06
2023-05-08T00:03:56.163Z,100642.94
2023-05-08T00:05:59.072Z,100679.81
2023-05-08T00:08:01.864Z,100619.69
2023-05-08T00:10:06.723Z,100627.19
2023-05-08T00:12:09.363Z,100641.31
2023-05-08T00:14:12.240Z,100658.44
2023-05-08T00:16:14.776Z,100636.78
2023-05-08T00:18:17.342Z,100599.47
2023-05-08T00:20:19.622Z,100557.03
2023-05-08T00:22:22.027Z,100594.09
2023-05-08T00:24:24.358Z,100669.84
2023-05-08T00:26:27.077Z,100568.31
2023-05-08T00:28:29.333Z,100671.78
2023-05-08T00:30:31.776Z,100653.44
2023-05-08T00:32:34.060Z,100651.81
2023-05-08T00:34:36.587Z,100576.06
2023-05-08T00:36:39.586Z,100647.63
2023-05-08T00:38:42.749Z,100577.69
2023-05-08T00:40:45.337Z,100605.06
2023-05-08T00:42:48.126Z,100632.59
2023-05-08T00:44:51.110Z,100604.03
2023-05-08T00:46:53.742Z,100603.38
2023-05-08T00:48:56.067Z,100628.22
2023-05-08T00:51:00.257Z,100579.25
2023-05-08T00:53:04.913Z,100684.34
2023-05-08T00:55:07.959Z,100676.06
2023-05-08T00:57:10.927Z,100640.28
2023-05-08T00:59:15.386Z,100664.69
2023-05-08T01:01:18.058Z,100634.72
2023-05-08T01:03:21.502Z,100591.59
2023-05-08T01:05:24.160Z,100622.47
2023-05-08T01:07:26.524Z,100617.66
2023-05-08T01:09:29.189Z,100580.28
2023-05-08T01:11:35.010Z,100693.75
2023-05-08T01:13:58.138Z,100593.00
2023-05-08T01:16:20.724Z,100623.47
2023-05-08T01:18:37.240Z,100638.69
2023-05-08T01:21:17.875Z,100695.47
2023-05-08T01:23:50.789Z,100699.06
2023-05-08T01:26:21.163Z,100705.13
2023-05-08T01:28:50.430Z,100701.00
2023-05-08T01:31:05.165Z,100699.53
2023-05-08T01:33:55.954Z,100587.22
2023-05-08T01:36:09.796Z,100622.41
2023-05-08T01:38:19.813Z,100700.44
2023-05-08T01:40:45.321Z,100661.81
2023-05-08T01:43:08.794Z,100643.25
2023-05-08T01:45:26.675Z,100643.25
2023-05-08T01:47:37.899Z,100564.19
2023-05-08T01:49:46.556Z,100664.66
2023-05-08T01:52:14.171Z,100615.13
2023-05-08T01:54:22.824Z,100638.94
2023-05-08T01:56:30.154Z,100610.53
2023-05-08T01:58:35.869Z,100636.91
2023-05-08T02:00:41.096Z,100678.19
2023-05-08T02:02:46.720Z,100616.31
2023-05-08T02:04:51.677Z,100686.19
2023-05-08T02:06:57.527Z,100618.41
2023-05-08T02:09:03.065Z,100647.69
2023-05-08T02:11:07.283Z,100630.38
2023-05-08T02:13:12.473Z,100630.38
2023-05-08T02:15:17.876Z,100623.47
2023-05-08T02:17:21.340Z,100659.78
2023-05-08T02:19:26.378Z,100641.06
2023-05-08T02:21:30.170Z,100589.41
2023-05-08T02:23:35.305Z,100680.84
2023-05-08T02:25:38.936Z,100658.81
2023-05-08T02:27:48.515Z,100676.06
2023-05-08T02:29:52.249Z,100655.97
2023-05-08T02:31:57.381Z,100622.75
2023-05-08T02:34:01.384Z,100651.63
2023-05-08T02:36:05.299Z,100642.19
2023-05-08T02:38:11.233Z,100616.25
2023-05-08T02:40:15.467Z,100589.56
2023-05-08T02:42:19.018Z,100620.97
2023-05-08T02:44:21.648Z,100649.00
2023-05-08T02:46:47.085Z,100709.81
2023-05-08T02:49:02.160Z,100643.31
2023-05-08T02:51:15.948Z,100693.25
2023-05-08T02:53:25.662Z,100617.19
2023-05-08T02:55:28.402Z,100695.59
2023-05-08T02:57:43.162Z,100717.28
2023-05-08T02:59:52.075Z,100665.50
2023-05-08T03:02:28.016Z,100638.34
2023-05-08T03:04:37.028Z,100591.81
2023-05-08T03:06:45.853Z,100672.78
2023-05-08T03:08:50.937Z,100670.91
2023-05-08T03:10:58.395Z,100711.75
2023-05-08T03:13:06.396Z,100691.66
2023-05-08T03:15:10.401Z,100694.22
2023-05-08T03:17:17.475Z,100676.78
2023-05-08T03:19:23.396Z,100731.06
2023-05-08T03:21:29.946Z,100698.50
2023-05-08T03:23:37.334Z,100691.03
2023-05-08T03:25:42.961Z,100731.00
2023-05-08T03:27:48.965Z,100683.88
2023-05-08T03:29:53.637Z,100659.13
2023-05-08T03:31:58.741Z,100648.28
2023-05-08T03:34:02.972Z,100686.56
2023-05-08T03:36:06.499Z,100679.84
2023-05-08T03:38:09.576Z,100665.97
2023-05-08T03:40:12.791Z,100685.03
2023-05-08T03:42:21.935Z,100715.56
2023-05-08T03:44:26.714Z,100703.72
2023-05-08T03:46:31.919Z,100665.50
2023-05-08T03:48:37.356Z,100644.13
2023-05-08T03:50:39.658Z,100672.34
2023-05-08T03:52:45.026Z,100674.00
2023-05-08T03:54:47.470Z,100662.09
2023-05-08T03:56:49.851Z,100651.16
2023-05-08T03:59:33.804Z,100744.59
2023-05-08T04:01:43.593Z,100615.22
2023-05-08T04:04:03.652Z,100740.88
2023-05-08T04:06:06.719Z,100739.88
2023-05-08T04:08:31.229Z,100705.56
2023-05-08T04:10:46.753Z,100683.75
2023-05-08T04:13:05.161Z,100720.09
2023-05-08T04:15:17.821Z,100672.78
2023-05-08T04:17:42.600Z,100703.78
2023-05-08T04:19:52.935Z,100657.69
2023-05-08T04:22:01.780Z,100657.03
2023-05-08T04:24:08.151Z,100710.25
2023-05-08T04:26:16.371Z,100725.19
2023-05-08T04:28:22.693Z,100731.00
2023-05-08T04:30:26.441Z,100722.47
2023-05-08T04:32:31.758Z,100719.81
2023-05-08T04:34:35.544Z,100727.25
2023-05-08T04:36:38.943Z,100693.75
2023-05-08T04:38:42.445Z,100714.41
2023-05-08T04:40:45.859Z,100725.06
2023-05-08T04:42:48.364Z,100693.25
2023-05-08T04:44:55.261Z,100714.19
2023-05-08T04:46:57.811Z,100704.00
2023-05-08T04:49:01.420Z,100732.09
2023-05-08T04:51:06.375Z,100738.75
2023-05-08T04:53:09.511Z,100743.34
2023-05-08T04:55:12.716Z,100722.66
2023-05-08T04:57:15.404Z,100737.63
2023-05-08T04:59:18.192Z,100719.72
2023-05-08T05:01:21.566Z,100656.06
2023-05-08T05:03:24.389Z,100732.44
2023-05-08T05:05:26.947Z,100781.69
2023-05-08T05:07:29.668Z,100734.34
2023-05-08T05:09:35.317Z,100679.25
2023-05-08T05:11:38.206Z,100727.66
2023-05-08T05:13:40.684Z,100778.06
2023-05-08T05:15:44.016Z,100756.03
2023-05-08T05:17:47.480Z,100726.88
2023-05-08T05:19:53.393Z,100800.69
2023-05-08T05:21:57.032Z,100743.84
2023-05-08T05:23:59.651Z,100727.63
2023-05-08T05:26:02.317Z,100796.97
2023-05-08T05:28:06.391Z,100760.50
2023-05-08T05:30:09.248Z,100678.72
2023-05-08T05:32:12.912Z,100702.28
2023-05-08T05:34:15.438Z,100740.19
2023-05-08T05:36:18.709Z,100741.41
2023-05-08T05:38:22.016Z,100744.91
2023-05-08T05:40:24.505Z,100755.59
2023-05-08T05:42:26.868Z,100747.56
2023-05-08T05:44:30.610Z,100767.81
2023-05-08T05:46:32.968Z,100802.19
2023-05-08T05:48:38.235Z,100797.41
2023-05-08T05:50:42.000Z,100775.94
2023-05-08T05:52:45.151Z,100757.78
2023-05-08T05:54:48.009Z,100766.00
2023-05-08T05:56:50.979Z,100802.34
2023-05-08T05:58:54.135Z,100742.66
2023-05-08T06:01:01.298Z,100753.09
2023-05-08T06:03:06.040Z,100744.47
2023-05-08T06:05:10.475Z,100724.06
2023-05-08T06:07:13.460Z,100724.41
2023-05-08T06:09:16.407Z,100830.91
2023-05-08T06:11:19.742Z,100778.31
2023-05-08T06:13:22.755Z,100767.69
2023-05-08T06:15:26.210Z,100790.84
2023-05-08T06:17:29.617Z,100791.63
2023-05-08T06:19:32.119Z,100808.34
2023-05-08T06:21:35.045Z,100810.56
2023-05-08T06:23:37.634Z,100775.81
2023-05-08T06:25:40.914Z,100787.91
2023-05-08T06:27:43.637Z,100808.06
2023-05-08T06:29:53.880Z,100839.16
2023-05-08T06:31:57.347Z,100766.75
2023-05-08T06:34:00.043Z,100834.34
2023-05-08T06:36:05.221Z,100790.22
2023-05-08T06:38:08.044Z,100787.44
2023-05-08T06:40:12.874Z,100807.56
2023-05-08T06:42:15.926Z,100747.72
2023-05-08T06:44:21.518Z,100789.75
2023-05-08T06:46:24.693Z,100810.03
2023-05-08T06:48:29.800Z,100798.88
2023-05-08T06:50:32.528Z,100789.69
2023-05-08T06:52:35.038Z,100786.66
2023-05-08T06:54:38.025Z,100810.75
2023-05-08T06:56:40.194Z,100785.25
2023-05-08T06:58:46.330Z,100829.06
2023-05-08T07:00:53.616Z,100791.41
2023-05-08T07:02:56.207Z,100781.06
2023-05-08T07:04:59.156Z,100795.09
2023-05-08T07:07:02.030Z,100759.63
2023-05-08T07:09:04.474Z,100792.53
2023-05-08T07:11:09.060Z,100843.59
2023-05-08T07:13:12.155Z,100771.63
2023-05-08T07:15:25.568Z,100808.53
2023-05-08T07:17:31.654Z,100787.13
2023-05-08T07:19:38.542Z,100864.00
2023-05-08T07:21:41.308Z,100830.03
2023-05-08T07:23:43.818Z,100859.94
2023-05-08T07:25:46.534Z,100808.41
2023-05-08T07:27:49.154Z,100839.88
2023-05-08T07:29:52.100Z,100853.53
2023-05-08T07:31:54.888Z,100811.41
2023-05-08T07:33:57.419Z,100832.31
2023-05-08T07:36:00.503Z,100819.00
2023-05-08T07:38:02.992Z,100860.22
2023-05-08T07:40:06.892Z,100832.34
2023-05-08T07:42:09.267Z,100853.72
2023-05-08T07:44:12.020Z,100828.19
2023-05-08T07:46:19.040Z,100855.47
2023-05-08T07:48:21.673Z,100845.25
2023-05-08T07:50:26.669Z,100861.66
2023-05-08T07:52:29.574Z,100872.84
2023-05-08T07:54:32.438Z,100892.94
2023-05-08T07:56:35.111Z,100839.72
2023-05-08T07:58:38.014Z,100844.88
2023-05-08T08:00:41.778Z,100883.06
2023-05-08T08:02:45.369Z,100840.81
2023-05-08T08:04:47.856Z,100833.00
2023-05-08T08:06:50.814Z,100861.34
2023-05-08T08:08:53.992Z,100867.19
2023-05-08T08:10:57.026Z,100816.84
2023-05-08T08:13:02.088Z,100848.94
2023-05-08T08:15:06.527Z,100858.09
2023-05-08T08:17:09.340Z,100837.56
2023-05-08T08:19:11.740Z,100833.22
2023-05-08T08:21:14.289Z,100866.84
2023-05-08T08:23:16.877Z,100902.25
2023-05-08T08:25:20.053Z,100897.72
2023-05-08T08:27:22.858Z,100884.53
2023-05-08T08:29:26.206Z,100833.28
2023-05-08T08:31:29.416Z,100871.59
2023-05-08T08:33:32.816Z,100835.88
2023-05-08T08:35:35.818Z,100867.97
2023-05-08T08:37:38.590Z,100860.31
2023-05-08T08:39:40.992Z,100904.16
2023-05-08T08:41:43.660Z,100867.66
2023-05-08T08:43:47.866Z,100836.13
2023-05-08T08:45:50.604Z,100877.56
2023-05-08T08:47:54.068Z,100843.78
2023-05-08T08:49:59.272Z,100861.53
2023-05-08T08:52:16.065Z,100851.03
2023-05-08T08:54:23.866Z,100854.63
2023-05-08T08:56:27.549Z,100865.84
2023-05-08T08:58:50.149Z,100815.81
2023-05-08T09:00:54.868Z,100869.38
2023-05-08T09:02:57.726Z,100870.28
2023-05-08T09:05:02.015Z,100798.16
2023-05-08T09:07:06.138Z,100850.47
2023-05-08T09:09:08.408Z,100880.34
2023-05-08T09:11:10.900Z,100888.59
2023-05-08T09:13:13.528Z,100874.19
2023-05-08T09:15:16.400Z,100884.34
2023-05-08T09:17:19.506Z,100856.03
2023-05-08T09:19:26.256Z,100866.38
2023-05-08T09:21:30.948Z,100815.59
2023-05-08T09:23:36.420Z,100861.41
2023-05-08T09:25:46.741Z,100806.88
2023-05-08T09:27:49.290Z,100859.41
2023-05-08T09:30:05.520Z,100844.84
2023-05-08T09:32:19.511Z,100834.50
2023-05-08T09:34:30.559Z,100862.66
2023-05-08T09:36:35.218Z,100847.22
2023-05-08T09:38:40.543Z,100869.00
2023-05-08T09:40:42.990Z,100814.00
2023-05-08T09:42:47.083Z,100833.78
2023-05-08T09:44:54.298Z,100830.44
2023-05-08T09:47:11.700Z,100835.81
2023-05-08T09:49:18.259Z,100844.81
2023-05-08T09:51:21.917Z,100835.69
2023-05-08T09:53:32.328Z,100825.69
2023-05-08T09:55:55.300Z,100877.31
2023-05-08T09:58:00.303Z,100804.03
2023-05-08T10:00:09.369Z,100882.75
2023-05-08T10:02:16.912Z,100880.72
2023-05-08T10:04:32.277Z,100878.72
2023-05-08T10:06:35.132Z,100825.72
2023-05-08T10:08:37.621Z,100837.31
2023-05-08T10:10:40.824Z,100834.63
2023-05-08T10:12:44.075Z,100845.78
2023-05-08T10:14:47.073Z,100858.56
2023-05-08T10:16:52.754Z,100839.75
2023-05-08T10:19:02.753Z,100805.00
2023-05-08T10:21:09.251Z,100809.31
2023-05-08T10:23:17.166Z,100771.72
2023-05-08T10:25:22.975Z,100819.44
2023-05-08T10:27:53.131Z,100862.81
2023-05-08T10:30:01.607Z,100822.69
2023-05-08T10:32:09.798Z,100806.19
2023-05-08T10:34:19.179Z,100849.59
2023-05-08T10:36:29.061Z,100763.19
2023-05-08T10:38:35.752Z,100821.47
2023-05-08T10:40:39.575Z,100792.38
2023-05-08T10:42:42.617Z,100816.06
2023-05-08T10:44:47.514Z,100792.03
2023-05-08T10:46:58.564Z,100811.19
2023-05-08T10:49:25.354Z,100800.09
2023-05-08T10:51:41.192Z,100796.13
2023-05-08T10:53:56.135Z,100809.75
2023-05-08T10:55:59.610Z,100793.81
2023-05-08T10:58:05.301Z,100833.59
2023-05-08T11:00:09.559Z,100807.69
2023-05-08T11:02:12.215Z,100793.06
2023-05-08T11:04:23.181Z,100785.25
2023-05-08T11:06:59.588Z,100837.16
2023-05-08T11:09:02.056Z,100767.34
2023-05-08T11:11:22.287Z,100818.81
2023-05-08T11:13:36.689Z,100825.84
2023-05-08T11:15:40.998Z,100805.09
2023-05-08T11:17:47.795Z,100821.09
2023-05-08T11:20:00.233Z,100830.28
2023-05-08T11:22:16.479Z,100798.41
2023-05-08T11:24:19.050Z,100804.41
2023-05-08T11:26:22.111Z,100801.19
2023-05-08T11:28:24.547Z,100783.41
2023-05-08T11:30:35.793Z,100803.66
2023-05-08T11:33:07.862Z,100812.28
2023-05-08T11:35:15.295Z,100786.75
2023-05-08T11:37:24.486Z,100776.41
2023-05-08T11:39:27.365Z,100753.09
2023-05-08T11:41:30.082Z,100767.41
2023-05-08T11:44:02.814Z,100753.91
2023-05-08T11:46:08.806Z,100754.09
2023-05-08T11:48:16.310Z,100782.63
2023-05-08T11:50:19.245Z,100778.91
2023-05-08T11:52:22.570Z,100709.13
2023-05-08T11:54:29.696Z,100725.88
2023-05-08T11:56:32.610Z,100723.66
2023-05-08T11:58:37.004Z,100736.50
2023-05-08T12:00:46.755Z,100739.09
2023-05-08T12:02:49.758Z,100760.38
2023-05-08T12:04:52.488Z,100712.84
2023-05-08T12:06:59.566Z,100698.88
2023-05-08T12:09:05.313Z,100739.63
2023-05-08T12:11:08.338Z,100708.56
2023-05-08T12:13:18.800Z,100737.66
2023-05-08T12:15:21.652Z,100728.16
2023-05-08T12:17:24.407Z,100759.16
2023-05-08T12:19:27.100Z,100730.53
2023-05-08T12:21:29.876Z,100750.81
2023-05-08T12:23:34.163Z,100740.25
2023-05-08T12:25:41.568Z,100738.31
2023-05-08T12:27:45.286Z,100721.25
2023-05-08T12:29:48.140Z,100685.88
2023-05-08T12:31:51.485Z,100735.44
2023-05-08T12:33:56.796Z,100754.63
2023-05-08T12:35:59.820Z,100726.59
2023-05-08T12:38:06.389Z,100739.16
2023-05-08T12:40:22.889Z,100759.59
2023-05-08T12:42:49.887Z,100780.03
2023-05-08T12:44:53.758Z,100679.09
2023-05-08T12:46:58.791Z,100741.69
2023-05-08T12:49:04.736Z,100716.16
2023-05-08T12:51:07.781Z,100736.66
2023-05-08T12:53:12.680Z,100753.81
2023-05-08T12:55:28.850Z,100711.81
2023-05-08T12:57:31.544Z,100714.81
2023-05-08T12:59:34.058Z,100736.47
2023-05-08T13:01:36.568Z,100722.25
2023-05-08T13:03:41.259Z,100698.81
2023-05-08T13:05:46.452Z,100706.63
2023-05-08T13:07:51.947Z,100743.31
2023-05-08T13:10:05.220Z,100716.75
2023-05-08T13:12:08.534Z,100738.38
2023-05-08T13:14:11.352Z,100740.56
2023-05-08T13:16:14.228Z,100708.13
2023-05-08T13:18:19.299Z,100706.22
2023-05-08T13:20:21.768Z,100750.97
2023-05-08T13:22:27.118Z,100736.88
2023-05-08T13:24:29.856Z,100701.66
2023-05-08T13:26:32.818Z,100690.81
2023-05-08T13:28:35.554Z,100750.66
2023-05-08T13:30:38.899Z,100673.41
2023-05-08T13:32:41.834Z,100714.50
2023-05-08T13:34:50.784Z,100693.72
2023-05-08T13:36:54.532Z,100746.91
2023-05-08T13:38:58.016Z,100703.69
2023-05-08T13:41:00.859Z,100731.78
2023-05-08T13:43:04.519Z,100684.06
2023-05-08T13:45:08.396Z,100713.78
2023-05-08T13:47:11.267Z,100713.94
2023-05-08T13:49:14.310Z,100643.97
2023-05-08T13:51:16.947Z,100727.41
2023-05-08T13:53:19.521Z,100706.78
2023-05-08T13:55:23.420Z,100735.22
2023-05-08T13:57:27.497Z,100741.28
2023-05-08T13:59:31.917Z,100713.06
2023-05-08T14:01:34.455Z,100743.28
2023-05-08T14:03:37.850Z,100697.06
2023-05-08T14:05:40.746Z,100722.31
2023-05-08T14:07:44.222Z,100722.53
2023-05-08T14:09:47.307Z,100715.53
2023-05-08T14:11:49.977Z,100712.19
2023-05-08T14:13:52.277Z,100707.91
2023-05-08T14:15:54.819Z,100693.34
2023-05-08T14:17:57.581Z,100694.88
2023-05-08T14:20:00.806Z,100680.81
2023-05-08T14:22:03.355Z,100682.66
2023-05-08T14:24:06.342Z,100738.41
2023-05-08T14:26:08.896Z,100639.06
2023-05-08T14:28:12.396Z,100687.88
2023-05-08T14:30:15.673Z,100692.00
2023-05-08T14:32:18.864Z,100719.59
2023-05-08T14:34:21.762Z,100696.00
2023-05-08T14:36:24.390Z,100685.13
2023-05-08T14:38:27.712Z,100729.13
2023-05-08T14:40:30.754Z,100725.91
2023-05-08T14:42:33.929Z,100701.34
2023-05-08T14:44:36.735Z,100732.25
2023-05-08T14:46:39.520Z,100772.06
2023-05-08T14:48:43.724Z,100706.50
2023-05-08T14:50:46.551Z,100663.06
2023-05-08T14:52:49.248Z,100670.91
2023-05-08T14:54:54.090Z,100704.41
2023-05-08T14:56:57.019Z,100717.91
2023-05-08T14:59:00.682Z,100750.44
2023-05-08T15:01:03.277Z,100735.47
2023-05-08T15:03:06.994Z,100759.34
2023-05-08T15:05:18.861Z,100701.78
2023-05-08T15:07:22.468Z,100759.06
2023-05-08T15:09:24.891Z,100753.94
2023-05-08T15:11:27.378Z,100734.09
2023-05-08T15:13:31.165Z,100750.50
2023-05-08T15:15:33.704Z,100675.84
2023-05-08T15:17:36.981Z,100667.28
2023-05-08T15:19:39.603Z,100665.00
2023-05-08T15:21:42.271Z,100706.75
2023-05-08T15:23:45.238Z,100691.75
2023-05-08T15:25:48.061Z,100705.06
2023-05-08T15:27:53.065Z,100705.50
2023-05-08T15:29:56.084Z,100723.81
2023-05-08T15:31:58.978Z,100734.72
2023-05-08T15:34:01.967Z,100727.94
2023-05-08T15:36:05.122Z,100720.81
2023-05-08T15:38:07.939Z,100662.47
2023-05-08T15:40:11.417Z,100680.66
2023-05-08T15:42:14.595Z,100660.16
2023-05-08T15:44:19.840Z,100716.97
2023-05-08T15:46:23.273Z,100723.34
2023-05-08T15:48:26.785Z,100716.13
2023-05-08T15:50:29.884Z,100670.81
2023-05-08T15:52:32.544Z,100652.78
2023-05-08T15:54:35.367Z,100717.06
2023-05-08T15:56:37.886Z,100654.97
2023-05-08T15:58:40.997Z,100692.19
2023-05-08T16:00:45.537Z,100696.09
2023-05-08T16:02:48.716Z,100725.13
2023-05-08T16:04:52.179Z,100695.94
2023-05-08T16:06:56.712Z,100682.19
2023-05-08T16:09:00.581Z,100700.22
2023-05-08T16:11:04.178Z,100749.50
2023-05-08T16:13:07.577Z,100682.41
2023-05-08T16:15:10.937Z,100678.38
2023-05-08T16:17:14.187Z,100680.84
2023-05-08T16:19:16.731Z,100674.22
2023-05-08T16:21:19.233Z,100727.38
2023-05-08T16:23:22.143Z,100705.03
2023-05-08T16:25:25.756Z,100677.19
2023-05-08T16:27:29.560Z,100735.63
2023-05-08T16:29:32.970Z,100713.69
2023-05-08T16:31:35.913Z,100663.16
2023-05-08T16:33:38.659Z,100688.69
2023-05-08T16:35:41.392Z,100676.84
2023-05-08T16:37:44.471Z,100700.63
2023-05-08T16:39:47.281Z,100705.34
2023-05-08T16:41:49.964Z,100681.34
2023-05-08T16:43:52.355Z,100709.59
2023-05-08T16:45:56.801Z,100683.16
2023-05-08T16:48:00.833Z,100709.38
2023-05-08T16:50:06.156Z,100655.38
2023-05-08T16:52:08.672Z,100695.44
2023-05-08T16:54:11.430Z,100647.31
2023-05-08T16:56:14.043Z,100706.94
2023-05-08T16:58:16.702Z,100685.38
2023-05-08T17:00:21.530Z,100710.78
2023-05-08T17:02:24.650Z,100701.56
2023-05-08T17:04:29.607Z,100694.31
2023-05-08T17:06:35.028Z,100726.00
2023-05-08T17:08:38.496Z,100695.91
2023-05-08T17:10:42.168Z,100709.59
2023-05-08T17:12:44.738Z,100718.91
2023-05-08T17:14:48.307Z,100704.69
2023-05-08T17:16:51.668Z,100691.06
2023-05-08T17:18:55.046Z,100696.00
2023-05-08T17:20:57.747Z,100707.31
2023-05-08T17:23:00.699Z,100713.41
2023-05-08T17:25:03.803Z,100687.25
2023-05-08T17:27:10.455Z,100710.34
2023-05-08T17:29:13.535Z,100701.53
2023-05-08T17:31:16.432Z,100642.09
2023-05-08T17:33:20.197Z,100711.78
2023-05-08T17:35:23.514Z,100672.31
2023-05-08T17:37:26.833Z,100715.94
2023-05-08T17:39:29.506Z,100657.28
2023-05-08T17:41:32.020Z,100714.13
2023-05-08T17:43:35.977Z,100674.47
2023-05-08T17:45:39.547Z,100710.53
2023-05-08T17:47:42.549Z,100723.16
2023-05-08T17:49:45.548Z,100739.00
2023-05-08T17:51:48.662Z,100697.56
2023-05-08T17:53:53.547Z,100700.38
2023-05-08T17:55:56.352Z,100710.72
2023-05-08T17:57:58.978Z,100751.66
2023-05-08T18:00:01.631Z,100727.91
2023-05-08T18:02:04.794Z,100743.34
2023-05-08T18:04:07.765Z,100720.44
2023-05-08T18:06:10.506Z,100732.63
2023-05-08T18:08:13.243Z,100708.19
2023-05-08T18:10:16.463Z,100738.75
2023-05-08T18:12:19.383Z,100745.34
2023-05-08T18:14:22.269Z,100705.63
2023-05-08T18:16:25.183Z,100722.41
2023-05-08T18:18:28.162Z,100701.88
2023-05-08T18:20:30.812Z,100732.75
2023-05-08T18:22:33.893Z,100697.25
2023-05-08T18:24:36.652Z,100736.81
2023-05-08T18:26:39.302Z,100718.00
2023-05-08T18:28:42.332Z,100669.63
2023-05-08T18:30:45.123Z,100741.53
2023-05-08T18:32:47.996Z,100755.91
2023-05-08T18:34:51.123Z,100748.53
2023-05-08T18:36:56.042Z,100785.44
2023-05-08T18:39:00.858Z,100728.63
2023-05-08T18:41:05.668Z,100719.03
2023-05-08T18:43:08.534Z,100708.81
2023-05-08T18:45:11.893Z,100749.97
2023-05-08T18:47:14.613Z,100724.41
2023-05-08T18:49:17.389Z,100747.38
2023-05-08T18:51:20.052Z,100786.31
2023-05-08T18:53:23.139Z,100755.97
2023-05-08T18:55:27.486Z,100771.47
2023-05-08T18:57:30.047Z,100741.09
2023-05-08T18:59:32.656Z,100740.81
2023-05-08T19:01:35.428Z,100662.28
2023-05-08T19:03:39.135Z,100767.72
2023-05-08T19:05:42.467Z,100714.75
2023-05-08T19:07:46.051Z,100783.88
2023-05-08T19:09:48.811Z,100795.88
2023-05-08T19:11:51.978Z,100682.44
2023-05-08T19:13:54.588Z,100721.22
2023-05-08T19:15:57.290Z,100729.16
2023-05-08T19:18:02.459Z,100769.53
2023-05-08T19:20:05.862Z,100721.72
2023-05-08T19:22:08.694Z,100787.56
2023-05-08T19:24:12.696Z,100750.66
2023-05-08T19:26:16.004Z,100691.16
2023-05-08T19:28:18.733Z,100733.13
2023-05-08T19:30:21.628Z,100741.00
2023-05-08T19:32:24.571Z,100682.91
2023-05-08T19:34:27.216Z,100741.25
2023-05-08T19:36:29.684Z,100685.72
2023-05-08T19:38:32.621Z,100731.09
2023-05-08T19:40:44.819Z,100747.81
2023-05-08T19:42:55.729Z,100733.41
2023-05-08T19:44:59.099Z,100769.53
2023-05-08T19:47:03.891Z,100764.13
2023-05-08T19:49:07.288Z,100694.28
2023-05-08T19:51:12.301Z,100677.72
2023-05-08T19:53:16.080Z,100713.78
2023-05-08T19:55:19.673Z,100698.66
2023-05-08T19:57:23.376Z,100790.78
2023-05-08T19:59:26.220Z,100726.16
2023-05-08T20:01:29.237Z,100760.53
2023-05-08T20:03:32.587Z,100742.41
2023-05-08T20:05:35.361Z,100755.19
2023-05-08T20:07:38.329Z,100737.72
2023-05-08T20:09:41.806Z,100694.03
2023-05-08T20:11:44.760Z,100735.00
2023-05-08T20:13:47.670Z,100682.09
2023-05-08T20:15:50.209Z,100704.75
2023-05-08T20:17:53.397Z,100720.56
2023-05-08T20:19:56.056Z,100702.97
2023-05-08T20:21:58.539Z,100681.34
2023-05-08T20:24:01.552Z,100667.31
2023-05-08T20:26:05.614Z,100693.94
2023-05-08T20:28:08.180Z,100713.78
2023-05-08T20:30:12.021Z,100685.78
2023-05-08T20:32:16.761Z,100732.28
2023-05-08T20:34:21.793Z,100739.41
2023-05-08T20:36:24.760Z,100740.28
2023-05-08T20:38:27.218Z,100707.03
2023-05-08T20:40:29.702Z,100678.91
2023-05-08T20:42:32.167Z,100756.41
2023-05-08T20:44:34.816Z,100714.88
2023-05-08T20:46:37.235Z,100658.47
2023-05-08T20:48:39.895Z,100724.41
2023-05-08T20:50:42.966Z,100643.03
2023-05-08T20:52:46.126Z,100673.97
2023-05-08T20:54:49.019Z,100705.44
2023-05-08T20:56:51.513Z,100717.22
2023-05-08T20:58:54.279Z,100736.47
2023-05-08T21:00:56.776Z,100689.00
2023-05-08T21:02:59.914Z,100695.03
2023-05-08T21:05:02.633Z,100696.97
2023-05-08T21:07:05.619Z,100725.13
2023-05-08T21:09:08.029Z,100717.84
2023-05-08T21:11:12.668Z,100720.50
2023-05-08T21:13:15.213Z,100670.72
2023-05-08T21:15:17.661Z,100726.75
2023-05-08T21:17:20.679Z,100700.00
2023-05-08T21:19:24.027Z,100746.81
2023-05-08T21:21:26.549Z,100656.06
2023-05-08T21:23:31.696Z,100726.16
2023-05-08T21:25:34.168Z,100723.63
2023-05-08T21:27:36.730Z,100668.84
2023-05-08T21:29:40.003Z,100720.75
2023-05-08T21:31:43.689Z,100724.34
2023-05-08T21:33:46.416Z,100666.91
2023-05-08T21:35:48.894Z,100736.97
2023-05-08T21:37:54.423Z,100759.84
2023-05-08T21:39:57.148Z,100746.25
2023-05-08T21:41:59.527Z,100733.97
2023-05-08T21:44:01.874Z,100728.06
2023-05-08T21:46:05.999Z,100690.72
2023-05-08T21:48:08.997Z,100694.13
2023-05-08T21:50:11.706Z,100708.41
2023-05-08T21:52:14.786Z,100723.44
2023-05-08T21:54:17.285Z,100664.53
2023-05-08T21:56:20.031Z,100715.50
2023-05-08T21:58:22.214Z,100707.38
2023-05-08T22:00:30.092Z,100712.09
2023-05-08T22:02:32.398Z,100675.88
2023-05-08T22:04:35.185Z,100705.16
2023-05-08T22:06:37.435Z,100691.97
2023-05-08T22:08:40.469Z,100707.09
2023-05-08T22:10:44.553Z,100687.50
2023-05-08T22:12:46.840Z,100654.34
2023-05-08T22:14:49.587Z,100707.50
2023-05-08T22:16:52.031Z,100727.59
2023-05-08T22:18:54.712Z,100723.72
2023-05-08T22:20:57.271Z,100704.28
2023-05-08T22:22:59.544Z,100723.75
2023-05-08T22:25:01.718Z,100670.50
2023-05-08T22:27:04.157Z,100711.63
2023-05-08T22:29:06.731Z,100725.00
2023-05-08T22:31:09.143Z,100668.91
2023-05-08T22:33:12.057Z,100713.47
2023-05-08T22:35:15.308Z,100671.97
2023-05-08T22:37:18.156Z,100660.50
2023-05-08T22:39:20.579Z,100698.53
2023-05-08T22:41:24.196Z,100631.66
2023-05-08T22:43:27.872Z,100660.00
2023-05-08T22:45:32.453Z,100649.88
2023-05-08T22:47:35.753Z,100671.19
2023-05-08T22:49:42.424Z,100692.00
2023-05-08T22:51:44.682Z,100688.03
2023-05-08T22:53:47.776Z,100643.00
2023-05-08T22:55:50.392Z,100686.50
2023-05-08T22:57:53.629Z,100688.28
2023-05-08T22:59:56.105Z,100667.53
2023-05-08T23:01:58.635Z,100695.66
2023-05-08T23:04:01.533Z,100637.53
2023-05-08T23:06:04.745Z,100644.19
2023-05-08T23:08:07.928Z,100611.72
2023-05-08T23:10:10.859Z,100625.94
2023-05-08T23:12:13.272Z,100685.66
2023-05-08T23:14:15.952Z,100672.28
2023-05-08T23:16:18.110Z,100647.63
2023-05-08T23:18:20.487Z,100672.66
2023-05-08T23:20:23.572Z,100646.69
2023-05-08T23:22:26.027Z,100695.91
2023-05-08T23:24:28.344Z,100676.06
2023-05-08T23:26:30.524Z,100656.94
2023-05-08T23:28:36.110Z,100582.81
2023-05-08T23:30:38.413Z,100655.38
2023-05-08T23:32:41.410Z,100663.16
2023-05-08T23:34:43.733Z,100604.22
2023-05-08T23:36:46.118Z,100578.41
2023-05-08T23:38:48.502Z,100612.53
2023-05-08T23:40:51.254Z,100649.38
2023-05-08T23:42:53.728Z,100645.06
2023-05-08T23:44:56.803Z,100615.75
2023-05-08T23:46:59.566Z,100667.69
2023-05-08T23:49:01.724Z,100665.88